Weather at Cherry Capital Airport

Public forecast

Using degrees Fahrenheit for public forecast. Weather courtesy of forecast.io.

Current aviation weather report (METAR) for Cherry Capital Airport

Retrieved 2020/12/02 04:53 UTC (42 minutes ago):

KTVC 020453Z AUTO 34009G19KT 10SM CLR 02/M02 A3006 RMK AO2 SLP185 T00221022 400331011

Aviation forecast (TAF) for Cherry Capital Airport

Retrieved 2020-12-02 00:27 UTC (5 hours ago):

TAF KTVC 012324Z 0200/0224 33012G21KT P6SM SKC FM021600 27010KT P6SM SCT250